sensor_id;sensor_type;location;lat;lon;timestamp;pressure;altitude;pressure_sealevel;temperature
85893;BMP280;76433;42.122;23.040;2024-02-21T00:01:41;98063.81;;;7.35
85893;BMP280;76433;42.122;23.040;2024-02-21T00:04:07;98062.31;;;7.34
85893;BMP280;76433;42.122;23.040;2024-02-21T00:06:32;98064.22;;;7.33
85893;BMP280;76433;42.122;23.040;2024-02-21T00:08:58;98060.91;;;7.29
85893;BMP280;76433;42.122;23.040;2024-02-21T00:11:23;98061.72;;;7.26
85893;BMP280;76433;42.122;23.040;2024-02-21T00:13:49;98063.25;;;7.27
85893;BMP280;76433;42.122;23.040;2024-02-21T00:16:16;98055.31;;;7.24
85893;BMP280;76433;42.122;23.040;2024-02-21T00:18:41;98062.41;;;7.30
85893;BMP280;76433;42.122;23.040;2024-02-21T00:21:07;98067.00;;;7.30
85893;BMP280;76433;42.122;23.040;2024-02-21T00:23:32;98073.50;;;7.29
85893;BMP280;76433;42.122;23.040;2024-02-21T00:25:58;98062.31;;;7.18
85893;BMP280;76433;42.122;23.040;2024-02-21T00:28:23;98064.28;;;7.14
85893;BMP280;76433;42.122;23.040;2024-02-21T00:30:48;98060.59;;;7.08
85893;BMP280;76433;42.122;23.040;2024-02-21T00:33:16;98070.56;;;7.04
85893;BMP280;76433;42.122;23.040;2024-02-21T00:35:42;98072.97;;;6.98
85893;BMP280;76433;42.122;23.040;2024-02-21T00:38:07;98073.88;;;6.91
85893;BMP280;76433;42.122;23.040;2024-02-21T00:40:32;98071.69;;;6.86
85893;BMP280;76433;42.122;23.040;2024-02-21T00:42:58;98067.94;;;6.84
85893;BMP280;76433;42.122;23.040;2024-02-21T00:45:23;98063.16;;;6.75
85893;BMP280;76433;42.122;23.040;2024-02-21T00:47:48;98059.19;;;6.63
85893;BMP280;76433;42.122;23.040;2024-02-21T00:50:14;98058.88;;;6.58
85893;BMP280;76433;42.122;23.040;2024-02-21T00:52:39;98065.44;;;6.53
85893;BMP280;76433;42.122;23.040;2024-02-21T00:55:05;98052.34;;;6.43
85893;BMP280;76433;42.122;23.040;2024-02-21T00:57:30;98065.66;;;6.43
85893;BMP280;76433;42.122;23.040;2024-02-21T00:59:57;98061.59;;;6.35
85893;BMP280;76433;42.122;23.040;2024-02-21T01:02:22;98057.91;;;6.28
85893;BMP280;76433;42.122;23.040;2024-02-21T01:04:48;98056.88;;;6.22
85893;BMP280;76433;42.122;23.040;2024-02-21T01:07:13;98057.22;;;6.24
85893;BMP280;76433;42.122;23.040;2024-02-21T01:09:38;98059.88;;;6.24
85893;BMP280;76433;42.122;23.040;2024-02-21T01:12:04;98053.81;;;6.24
85893;BMP280;76433;42.122;23.040;2024-02-21T01:14:29;98050.03;;;6.21
85893;BMP280;76433;42.122;23.040;2024-02-21T01:16:55;98047.78;;;6.20
85893;BMP280;76433;42.122;23.040;2024-02-21T01:19:20;98046.91;;;6.26
85893;BMP280;76433;42.122;23.040;2024-02-21T01:21:45;98037.88;;;6.20
85893;BMP280;76433;42.122;23.040;2024-02-21T01:24:11;98049.53;;;6.30
85893;BMP280;76433;42.122;23.040;2024-02-21T01:26:36;98049.09;;;6.32
85893;BMP280;76433;42.122;23.040;2024-02-21T01:29:01;98037.78;;;6.27
85893;BMP280;76433;42.122;23.040;2024-02-21T01:31:27;98049.84;;;6.32
85893;BMP280;76433;42.122;23.040;2024-02-21T01:33:52;98042.28;;;6.31
85893;BMP280;76433;42.122;23.040;2024-02-21T01:36:17;98047.13;;;6.36
85893;BMP280;76433;42.122;23.040;2024-02-21T01:38:43;98043.66;;;6.39
85893;BMP280;76433;42.122;23.040;2024-02-21T01:41:08;98043.72;;;6.35
85893;BMP280;76433;42.122;23.040;2024-02-21T01:43:34;98035.31;;;6.37
85893;BMP280;76433;42.122;23.040;2024-02-21T01:46:00;98038.34;;;6.39
85893;BMP280;76433;42.122;23.040;2024-02-21T01:48:26;98035.38;;;6.33
85893;BMP280;76433;42.122;23.040;2024-02-21T01:50:52;98029.84;;;6.24
85893;BMP280;76433;42.122;23.040;2024-02-21T01:53:21;98019.56;;;6.26
85893;BMP280;76433;42.122;23.040;2024-02-21T01:55:48;98019.56;;;6.26
85893;BMP280;76433;42.122;23.040;2024-02-21T01:58:14;98009.38;;;6.21
85893;BMP280;76433;42.122;23.040;2024-02-21T02:00:43;98016.59;;;6.20
85893;BMP280;76433;42.122;23.040;2024-02-21T02:03:10;98027.94;;;6.24
85893;BMP280;76433;42.122;23.040;2024-02-21T02:05:49;98026.44;;;6.23
85893;BMP280;76433;42.122;23.040;2024-02-21T02:08:19;98017.34;;;6.21
85893;BMP280;76433;42.122;23.040;2024-02-21T02:10:45;97995.81;;;6.12
85893;BMP280;76433;42.122;23.040;2024-02-21T02:13:11;98016.59;;;6.20
85893;BMP280;76433;42.122;23.040;2024-02-21T02:15:49;98014.44;;;6.15
85893;BMP280;76433;42.122;23.040;2024-02-21T02:18:16;98012.19;;;6.10
85893;BMP280;76433;42.122;23.040;2024-02-21T02:20:41;98008.50;;;6.04
85893;BMP280;76433;42.122;23.040;2024-02-21T02:23:11;98008.63;;;5.97
85893;BMP280;76433;42.122;23.040;2024-02-21T02:25:38;98012.41;;;6.00
85893;BMP280;76433;42.122;23.040;2024-02-21T02:28:06;98021.19;;;5.97
85893;BMP280;76433;42.122;23.040;2024-02-21T02:30:37;98016.72;;;5.90
85893;BMP280;76433;42.122;23.040;2024-02-21T02:33:03;97999.78;;;5.80
85893;BMP280;76433;42.122;23.040;2024-02-21T02:35:29;98004.75;;;5.78
85893;BMP280;76433;42.122;23.040;2024-02-21T02:37:54;98002.66;;;5.66
85893;BMP280;76433;42.122;23.040;2024-02-21T02:40:20;98005.38;;;5.63
85893;BMP280;76433;42.122;23.040;2024-02-21T02:42:45;98013.13;;;5.53
85893;BMP280;76433;42.122;23.040;2024-02-21T02:45:11;98007.97;;;5.43
85893;BMP280;76433;42.122;23.040;2024-02-21T02:47:36;97998.28;;;5.29
85893;BMP280;76433;42.122;23.040;2024-02-21T02:50:01;98001.75;;;5.26
85893;BMP280;76433;42.122;23.040;2024-02-21T02:52:27;97995.03;;;5.14
85893;BMP280;76433;42.122;23.040;2024-02-21T02:54:52;97997.69;;;5.14
85893;BMP280;76433;42.122;23.040;2024-02-21T02:57:20;97994.88;;;4.98
85893;BMP280;76433;42.122;23.040;2024-02-21T02:59:49;98006.31;;;4.95
85893;BMP280;76433;42.122;23.040;2024-02-21T03:02:15;98008.31;;;4.87
85893;BMP280;76433;42.122;23.040;2024-02-21T03:04:40;98011.03;;;4.80
85893;BMP280;76433;42.122;23.040;2024-02-21T03:07:06;98000.84;;;4.75
85893;BMP280;76433;42.122;23.040;2024-02-21T03:09:31;98001.59;;;4.76
85893;BMP280;76433;42.122;23.040;2024-02-21T03:11:57;98010.25;;;4.83
85893;BMP280;76433;42.122;23.040;2024-02-21T03:14:30;98024.50;;;4.97
85893;BMP280;76433;42.122;23.040;2024-02-21T03:16:56;98013.84;;;5.00
85893;BMP280;76433;42.122;23.040;2024-02-21T03:19:22;98010.69;;;5.09
85893;BMP280;76433;42.122;23.040;2024-02-21T03:21:48;98008.69;;;5.16
85893;BMP280;76433;42.122;23.040;2024-02-21T03:24:15;98010.16;;;5.21
85893;BMP280;76433;42.122;23.040;2024-02-21T03:26:41;98019.19;;;5.27
85893;BMP280;76433;42.122;23.040;2024-02-21T03:29:06;98027.41;;;5.36
85893;BMP280;76433;42.122;23.040;2024-02-21T03:31:31;98024.41;;;5.34
85893;BMP280;76433;42.122;23.040;2024-02-21T03:33:57;98023.69;;;5.30
85893;BMP280;76433;42.122;23.040;2024-02-21T03:36:22;98021.16;;;5.23
85893;BMP280;76433;42.122;23.040;2024-02-21T03:38:48;98015.09;;;5.19
85893;BMP280;76433;42.122;23.040;2024-02-21T03:41:13;98017.00;;;5.22
85893;BMP280;76433;42.122;23.040;2024-02-21T03:43:39;98017.00;;;5.22
85893;BMP280;76433;42.122;23.040;2024-02-21T03:46:04;98021.78;;;5.31
85893;BMP280;76433;42.122;23.040;2024-02-21T03:48:30;98014.97;;;5.30
85893;BMP280;76433;42.122;23.040;2024-02-21T03:50:56;98033.09;;;5.38
85893;BMP280;76433;42.122;23.040;2024-02-21T03:53:21;98036.47;;;5.42
85893;BMP280;76433;42.122;23.040;2024-02-21T03:55:46;98030.78;;;5.40
85893;BMP280;76433;42.122;23.040;2024-02-21T03:58:12;98032.28;;;5.41
85893;BMP280;76433;42.122;23.040;2024-02-21T04:00:37;98033.72;;;5.46
85893;BMP280;76433;42.122;23.040;2024-02-21T04:03:02;98037.53;;;5.45
85893;BMP280;76433;42.122;23.040;2024-02-21T04:05:28;98028.88;;;5.41
85893;BMP280;76433;42.122;23.040;2024-02-21T04:07:53;98031.59;;;5.37
85893;BMP280;76433;42.122;23.040;2024-02-21T04:10:19;98032.81;;;5.29
85893;BMP280;76433;42.122;23.040;2024-02-21T04:12:44;98027.63;;;5.22
85893;BMP280;76433;42.122;23.040;2024-02-21T04:15:09;98018.94;;;5.14
85893;BMP280;76433;42.122;23.040;2024-02-21T04:17:36;98013.69;;;5.11
85893;BMP280;76433;42.122;23.040;2024-02-21T04:20:04;98024.31;;;5.11
85893;BMP280;76433;42.122;23.040;2024-02-21T04:22:31;98031.47;;;5.14
85893;BMP280;76433;42.122;23.040;2024-02-21T04:24:59;98021.97;;;5.16
85893;BMP280;76433;42.122;23.040;2024-02-21T04:27:24;98036.00;;;5.20
85893;BMP280;76433;42.122;23.040;2024-02-21T04:29:50;98034.50;;;5.16
85893;BMP280;76433;42.122;23.040;2024-02-21T04:32:15;98040.91;;;5.18
85893;BMP280;76433;42.122;23.040;2024-02-21T04:34:41;98042.47;;;5.16
85893;BMP280;76433;42.122;23.040;2024-02-21T04:37:06;98043.97;;;5.20
85893;BMP280;76433;42.122;23.040;2024-02-21T04:39:32;98032.56;;;5.20
85893;BMP280;76433;42.122;23.040;2024-02-21T04:41:57;98044.19;;;5.30
85893;BMP280;76433;42.122;23.040;2024-02-21T04:44:22;98034.72;;;5.29
85893;BMP280;76433;42.122;23.040;2024-02-21T04:46:48;98038.84;;;5.33
85893;BMP280;76433;42.122;23.040;2024-02-21T04:49:13;98044.06;;;5.40
85893;BMP280;76433;42.122;23.040;2024-02-21T04:51:41;98032.72;;;5.36
85893;BMP280;76433;42.122;23.040;2024-02-21T04:54:06;98033.78;;;5.42
85893;BMP280;76433;42.122;23.040;2024-02-21T04:56:32;98032.72;;;5.36
85893;BMP280;76433;42.122;23.040;2024-02-21T04:58:57;98036.09;;;5.40
85893;BMP280;76433;42.122;23.040;2024-02-21T05:01:22;98037.25;;;5.39
85893;BMP280;76433;42.122;23.040;2024-02-21T05:03:48;98031.22;;;5.35
85893;BMP280;76433;42.122;23.040;2024-02-21T05:06:13;98044.47;;;5.39
85893;BMP280;76433;42.122;23.040;2024-02-21T05:08:40;98042.56;;;5.39
85893;BMP280;76433;42.122;23.040;2024-02-21T05:11:05;98036.19;;;5.33
85893;BMP280;76433;42.122;23.040;2024-02-21T05:13:30;98043.41;;;5.33
85893;BMP280;76433;42.122;23.040;2024-02-21T05:15:56;98046.81;;;5.33
85893;BMP280;76433;42.122;23.040;2024-02-21T05:18:21;98038.13;;;5.29
85893;BMP280;76433;42.122;23.040;2024-02-21T05:20:46;98053.28;;;5.32
85893;BMP280;76433;42.122;23.040;2024-02-21T05:23:12;98043.09;;;5.27
85893;BMP280;76433;42.122;23.040;2024-02-21T05:25:37;98052.25;;;5.26
85893;BMP280;76433;42.122;23.040;2024-02-21T05:28:03;98055.69;;;5.23
85893;BMP280;76433;42.122;23.040;2024-02-21T05:30:31;98042.13;;;5.14
85893;BMP280;76433;42.122;23.040;2024-02-21T05:32:57;98046.63;;;5.17
85893;BMP280;76433;42.122;23.040;2024-02-21T05:35:29;98053.44;;;5.21
85893;BMP280;76433;42.122;23.040;2024-02-21T05:37:54;98047.72;;;5.23
85893;BMP280;76433;42.122;23.040;2024-02-21T05:40:19;98047.31;;;5.24
85893;BMP280;76433;42.122;23.040;2024-02-21T05:42:45;98064.66;;;5.33
85893;BMP280;76433;42.122;23.040;2024-02-21T05:45:10;98055.59;;;5.30
85893;BMP280;76433;42.122;23.040;2024-02-21T05:47:36;98059.72;;;5.35
85893;BMP280;76433;42.122;23.040;2024-02-21T05:50:01;98063.13;;;5.35
85893;BMP280;76433;42.122;23.040;2024-02-21T05:52:26;98069.84;;;5.43
85893;BMP280;76433;42.122;23.040;2024-02-21T05:54:52;98066.50;;;5.39
85893;BMP280;76433;42.122;23.040;2024-02-21T05:57:18;98066.09;;;5.41
85893;BMP280;76433;42.122;23.040;2024-02-21T05:59:43;98068.75;;;5.41
85893;BMP280;76433;42.122;23.040;2024-02-21T06:02:09;98080.47;;;5.43
85893;BMP280;76433;42.122;23.040;2024-02-21T06:04:34;98092.53;;;5.51
85893;BMP280;76433;42.122;23.040;2024-02-21T06:07:00;98080.03;;;5.48
85893;BMP280;76433;42.122;23.040;2024-02-21T06:09:26;98092.88;;;5.53
85893;BMP280;76433;42.122;23.040;2024-02-21T06:11:52;98082.63;;;5.52
85893;BMP280;76433;42.122;23.040;2024-02-21T06:14:18;98086.06;;;5.52
85893;BMP280;76433;42.122;23.040;2024-02-21T06:16:44;98094.38;;;5.54
85893;BMP280;76433;42.122;23.040;2024-02-21T06:19:09;98096.25;;;5.57
85893;BMP280;76433;42.122;23.040;2024-02-21T06:21:35;98091.59;;;5.61
85893;BMP280;76433;42.122;23.040;2024-02-21T06:24:01;98101.03;;;5.70
85893;BMP280;76433;42.122;23.040;2024-02-21T06:26:26;98092.66;;;5.71
85893;BMP280;76433;42.122;23.040;2024-02-21T06:28:51;98104.28;;;5.81
85893;BMP280;76433;42.122;23.040;2024-02-21T06:31:17;98099.31;;;5.83
85893;BMP280;76433;42.122;23.040;2024-02-21T06:33:43;98112.03;;;5.95
85893;BMP280;76433;42.122;23.040;2024-02-21T06:36:08;98108.22;;;5.96
85893;BMP280;76433;42.122;23.040;2024-02-21T06:38:33;98097.63;;;5.92
85893;BMP280;76433;42.122;23.040;2024-02-21T06:41:01;98107.16;;;5.90
85893;BMP280;76433;42.122;23.040;2024-02-21T06:43:28;98112.16;;;5.88
85893;BMP280;76433;42.122;23.040;2024-02-21T06:45:53;98121.19;;;5.94
85893;BMP280;76433;42.122;23.040;2024-02-21T06:48:20;98115.06;;;5.97
85893;BMP280;76433;42.122;23.040;2024-02-21T06:50:45;98109.69;;;6.01
85893;BMP280;76433;42.122;23.040;2024-02-21T06:53:11;98117.50;;;6.11
85893;BMP280;76433;42.122;23.040;2024-02-21T06:55:36;98117.84;;;6.13
85893;BMP280;76433;42.122;23.040;2024-02-21T06:58:02;98118.84;;;6.23
85893;BMP280;76433;42.122;23.040;2024-02-21T07:00:29;98129.78;;;6.28
85893;BMP280;76433;42.122;23.040;2024-02-21T07:02:54;98126.66;;;6.34
85893;BMP280;76433;42.122;23.040;2024-02-21T07:05:20;98117.03;;;6.40
85893;BMP280;76433;42.122;23.040;2024-02-21T07:07:45;98119.47;;;6.54
85893;BMP280;76433;42.122;23.040;2024-02-21T07:10:10;98126.97;;;6.59
85893;BMP280;76433;42.122;23.040;2024-02-21T07:12:36;98114.81;;;6.58
85893;BMP280;76433;42.122;23.040;2024-02-21T07:15:04;98121.56;;;6.66
85893;BMP280;76433;42.122;23.040;2024-02-21T07:17:30;98128.31;;;6.71
85893;BMP280;76433;42.122;23.040;2024-02-21T07:19:55;98127.50;;;6.74
85893;BMP280;76433;42.122;23.040;2024-02-21T07:22:22;98121.13;;;6.87
85893;BMP280;76433;42.122;23.040;2024-02-21T07:24:47;98124.91;;;6.90
85893;BMP280;76433;42.122;23.040;2024-02-21T07:27:15;98124.00;;;6.96
85893;BMP280;76433;42.122;23.040;2024-02-21T07:29:40;98117.03;;;7.03
85893;BMP280;76433;42.122;23.040;2024-02-21T07:32:06;98123.53;;;7.02
85893;BMP280;76433;42.122;23.040;2024-02-21T07:34:31;98122.38;;;7.03
85893;BMP280;76433;42.122;23.040;2024-02-21T07:36:57;98127.63;;;7.06
85893;BMP280;76433;42.122;23.040;2024-02-21T07:39:22;98129.69;;;6.98
85893;BMP280;76433;42.122;23.040;2024-02-21T07:41:48;98121.09;;;6.91
85893;BMP280;76433;42.122;23.040;2024-02-21T07:44:15;98123.47;;;6.85
85893;BMP280;76433;42.122;23.040;2024-02-21T07:46:40;98114.56;;;6.72
85893;BMP280;76433;42.122;23.040;2024-02-21T07:49:05;98109.41;;;6.65
85893;BMP280;76433;42.122;23.040;2024-02-21T07:51:31;98112.47;;;6.63
85893;BMP280;76433;42.122;23.040;2024-02-21T07:53:56;98113.75;;;6.75
85893;BMP280;76433;42.122;23.040;2024-02-21T07:56:21;98115.06;;;6.87
85893;BMP280;76433;42.122;23.040;2024-02-21T07:58:47;98119.94;;;7.12
85893;BMP280;76433;42.122;23.040;2024-02-21T08:01:18;98110.41;;;7.47
85893;BMP280;76433;42.122;23.040;2024-02-21T08:03:44;98105.88;;;7.80
85893;BMP280;76433;42.122;23.040;2024-02-21T08:06:13;98110.41;;;8.15
85893;BMP280;76433;42.122;23.040;2024-02-21T08:08:38;98105.22;;;8.24
85893;BMP280;76433;42.122;23.040;2024-02-21T08:11:04;98094.09;;;8.42
85893;BMP280;76433;42.122;23.040;2024-02-21T08:13:29;98096.53;;;8.65
85893;BMP280;76433;42.122;23.040;2024-02-21T08:15:55;98089.09;;;8.86
85893;BMP280;76433;42.122;23.040;2024-02-21T08:18:20;98085.28;;;8.99
85893;BMP280;76433;42.122;23.040;2024-02-21T08:20:45;98098.56;;;9.16
85893;BMP280;76433;42.122;23.040;2024-02-21T08:23:11;98097.91;;;9.24
85893;BMP280;76433;42.122;23.040;2024-02-21T08:25:36;98094.50;;;9.24
85893;BMP280;76433;42.122;23.040;2024-02-21T08:28:02;98095.88;;;9.16
85893;BMP280;76433;42.122;23.040;2024-02-21T08:30:27;98094.59;;;9.07
85893;BMP280;76433;42.122;23.040;2024-02-21T08:32:53;98074.25;;;8.97
85893;BMP280;76433;42.122;23.040;2024-02-21T08:35:19;98084.94;;;8.97
85893;BMP280;76433;42.122;23.040;2024-02-21T08:37:47;98093.31;;;8.99
85893;BMP280;76433;42.122;23.040;2024-02-21T08:40:13;98077.34;;;8.96
85893;BMP280;76433;42.122;23.040;2024-02-21T08:42:43;98086.03;;;9.12
85893;BMP280;76433;42.122;23.040;2024-02-21T08:45:09;98078.88;;;9.22
85893;BMP280;76433;42.122;23.040;2024-02-21T08:47:34;98073.56;;;9.47
85893;BMP280;76433;42.122;23.040;2024-02-21T08:50:01;98072.53;;;9.79
85893;BMP280;76433;42.122;23.040;2024-02-21T08:52:26;98077.03;;;9.82
85893;BMP280;76433;42.122;23.040;2024-02-21T08:54:52;98079.69;;;9.82
85893;BMP280;76433;42.122;23.040;2024-02-21T08:57:19;98077.41;;;9.94
85893;BMP280;76433;42.122;23.040;2024-02-21T08:59:44;98074.09;;;9.90
85893;BMP280;76433;42.122;23.040;2024-02-21T09:02:09;98075.50;;;9.94
85893;BMP280;76433;42.122;23.040;2024-02-21T09:04:35;98088.13;;;9.94
85893;BMP280;76433;42.122;23.040;2024-02-21T09:07:00;98073.03;;;10.00
85893;BMP280;76433;42.122;23.040;2024-02-21T09:09:26;98075.22;;;10.14
85893;BMP280;76433;42.122;23.040;2024-02-21T09:11:53;98078.13;;;10.41
85893;BMP280;76433;42.122;23.040;2024-02-21T09:14:19;98087.47;;;10.58
85893;BMP280;76433;42.122;23.040;2024-02-21T09:16:44;98073.22;;;10.71
85893;BMP280;76433;42.122;23.040;2024-02-21T09:19:09;98086.59;;;10.61
85893;BMP280;76433;42.122;23.040;2024-02-21T09:21:37;98078.69;;;10.58
85893;BMP280;76433;42.122;23.040;2024-02-21T09:24:02;98084.09;;;10.67
85893;BMP280;76433;42.122;23.040;2024-02-21T09:26:28;98066.38;;;10.70
85893;BMP280;76433;42.122;23.040;2024-02-21T09:28:53;98068.50;;;10.75
85893;BMP280;76433;42.122;23.040;2024-02-21T09:31:19;98088.59;;;10.92
85893;BMP280;76433;42.122;23.040;2024-02-21T09:33:44;98080.56;;;11.01
85893;BMP280;76433;42.122;23.040;2024-02-21T09:36:10;98079.31;;;10.93
85893;BMP280;76433;42.122;23.040;2024-02-21T09:38:36;98073.91;;;10.84
85893;BMP280;76433;42.122;23.040;2024-02-21T09:41:17;98072.09;;;10.81
85893;BMP280;76433;42.122;23.040;2024-02-21T09:43:43;98070.22;;;10.69
85893;BMP280;76433;42.122;23.040;2024-02-21T09:46:24;98078.84;;;10.64
85893;BMP280;76433;42.122;23.040;2024-02-21T09:49:04;98069.06;;;10.70
85893;BMP280;76433;42.122;23.040;2024-02-21T09:51:34;98073.59;;;10.82
85893;BMP280;76433;42.122;23.040;2024-02-21T09:54:02;98062.88;;;10.82
85893;BMP280;76433;42.122;23.040;2024-02-21T09:56:28;98055.09;;;10.75
85893;BMP280;76433;42.122;23.040;2024-02-21T09:58:54;98049.84;;;10.71
85893;BMP280;76433;42.122;23.040;2024-02-21T10:01:19;98057.41;;;10.64
85893;BMP280;76433;42.122;23.040;2024-02-21T10:03:44;98050.56;;;10.63
85893;BMP280;76433;42.122;23.040;2024-02-21T10:06:10;98036.59;;;10.68
85893;BMP280;76433;42.122;23.040;2024-02-21T10:08:35;98052.16;;;10.82
85893;BMP280;76433;42.122;23.040;2024-02-21T10:11:00;98049.53;;;10.91
85893;BMP280;76433;42.122;23.040;2024-02-21T10:13:29;98039.75;;;11.06
85893;BMP280;76433;42.122;23.040;2024-02-21T10:16:21;98046.78;;;11.13
85893;BMP280;76433;42.122;23.040;2024-02-21T10:18:46;98041.53;;;11.09
85893;BMP280;76433;42.122;23.040;2024-02-21T10:21:12;98027.84;;;11.07
85893;BMP280;76433;42.122;23.040;2024-02-21T10:23:44;98028.41;;;11.02
85893;BMP280;76433;42.122;23.040;2024-02-21T10:26:10;98019.50;;;11.14
85893;BMP280;76433;42.122;23.040;2024-02-21T10:28:35;98027.59;;;11.23
85893;BMP280;76433;42.122;23.040;2024-02-21T10:31:01;98005.22;;;11.26
85893;BMP280;76433;42.122;23.040;2024-02-21T10:33:27;98005.13;;;11.48
85893;BMP280;76433;42.122;23.040;2024-02-21T10:35:53;98014.97;;;11.51
85893;BMP280;76433;42.122;23.040;2024-02-21T10:38:19;98003.19;;;11.58
85893;BMP280;76433;42.122;23.040;2024-02-21T10:40:46;98005.31;;;11.90
85893;BMP280;76433;42.122;23.040;2024-02-21T10:43:12;97998.22;;;12.20
85893;BMP280;76433;42.122;23.040;2024-02-21T10:45:40;97996.59;;;12.32
85893;BMP280;76433;42.122;23.040;2024-02-21T10:48:12;97994.47;;;12.36
85893;BMP280;76433;42.122;23.040;2024-02-21T10:53:21;97971.03;;;12.78
85893;BMP280;76433;42.122;23.040;2024-02-21T10:55:58;97974.13;;;13.10
85893;BMP280;76433;42.122;23.040;2024-02-21T10:58:29;97972.56;;;13.27
85893;BMP280;76433;42.122;23.040;2024-02-21T11:00:55;97959.28;;;13.38
85893;BMP280;76433;42.122;23.040;2024-02-21T11:03:21;97956.25;;;13.45
85893;BMP280;76433;42.122;23.040;2024-02-21T11:05:46;97960.44;;;13.46
85893;BMP280;76433;42.122;23.040;2024-02-21T11:08:12;97955.41;;;13.39
85893;BMP280;76433;42.122;23.040;2024-02-21T11:10:39;97938.50;;;13.15
85893;BMP280;76433;42.122;23.040;2024-02-21T11:13:09;97955.94;;;13.05
85893;BMP280;76433;42.122;23.040;2024-02-21T11:15:34;97949.38;;;12.97
85893;BMP280;76433;42.122;23.040;2024-02-21T11:17:59;97950.34;;;13.08
85893;BMP280;76433;42.122;23.040;2024-02-21T11:20:35;97950.69;;;13.01
85893;BMP280;76433;42.122;23.040;2024-02-21T11:23:01;97958.31;;;13.03
85893;BMP280;76433;42.122;23.040;2024-02-21T11:25:27;97955.97;;;12.96
85893;BMP280;76433;42.122;23.040;2024-02-21T11:28:01;97950.88;;;12.98
85893;BMP280;76433;42.122;23.040;2024-02-21T11:30:29;97939.81;;;12.96
85893;BMP280;76433;42.122;23.040;2024-02-21T11:33:01;97936.22;;;12.99
85893;BMP280;76433;42.122;23.040;2024-02-21T11:35:34;97939.97;;;13.16
85893;BMP280;76433;42.122;23.040;2024-02-21T11:38:10;97934.47;;;13.34
85893;BMP280;76433;42.122;23.040;2024-02-21T11:40:38;97910.50;;;13.75
85893;BMP280;76433;42.122;23.040;2024-02-21T11:43:05;97919.13;;;14.08
85893;BMP280;76433;42.122;23.040;2024-02-21T11:45:31;97913.53;;;14.12
85893;BMP280;76433;42.122;23.040;2024-02-21T11:47:58;97914.81;;;14.16
85893;BMP280;76433;42.122;23.040;2024-02-21T11:50:26;97906.66;;;14.45
85893;BMP280;76433;42.122;23.040;2024-02-21T11:52:54;97897.84;;;14.80
85893;BMP280;76433;42.122;23.040;2024-02-21T11:55:19;97901.22;;;14.75
85893;BMP280;76433;42.122;23.040;2024-02-21T11:57:45;97907.59;;;14.57
85893;BMP280;76433;42.122;23.040;2024-02-21T12:00:20;97897.66;;;14.49
85893;BMP280;76433;42.122;23.040;2024-02-21T12:02:46;97905.16;;;14.24
85893;BMP280;76433;42.122;23.040;2024-02-21T12:05:12;97903.50;;;14.12
85893;BMP280;76433;42.122;23.040;2024-02-21T12:07:37;97894.50;;;13.86
85893;BMP280;76433;42.122;23.040;2024-02-21T12:10:09;97895.13;;;13.66
85893;BMP280;76433;42.122;23.040;2024-02-21T12:12:35;97888.19;;;13.59
85893;BMP280;76433;42.122;23.040;2024-02-21T12:15:03;97888.63;;;13.43
85893;BMP280;76433;42.122;23.040;2024-02-21T12:17:33;97889.53;;;13.40
85893;BMP280;76433;42.122;23.040;2024-02-21T12:19:59;97894.75;;;13.44
85893;BMP280;76433;42.122;23.040;2024-02-21T12:22:25;97886.78;;;13.49
85893;BMP280;76433;42.122;23.040;2024-02-21T12:24:50;97877.50;;;13.50
85893;BMP280;76433;42.122;23.040;2024-02-21T12:27:16;97880.72;;;13.54
85893;BMP280;76433;42.122;23.040;2024-02-21T12:29:41;97870.53;;;13.58
85893;BMP280;76433;42.122;23.040;2024-02-21T12:32:06;97874.94;;;13.71
85893;BMP280;76433;42.122;23.040;2024-02-21T12:34:32;97873.59;;;13.81
85893;BMP280;76433;42.122;23.040;2024-02-21T12:36:58;97854.13;;;14.06
85893;BMP280;76433;42.122;23.040;2024-02-21T12:39:24;97861.91;;;14.33
85893;BMP280;76433;42.122;23.040;2024-02-21T12:41:49;97858.38;;;14.48
85893;BMP280;76433;42.122;23.040;2024-02-21T12:44:15;97867.06;;;14.72
85893;BMP280;76433;42.122;23.040;2024-02-21T12:46:41;97864.19;;;14.81
85893;BMP280;76433;42.122;23.040;2024-02-21T12:49:07;97852.53;;;14.90
85893;BMP280;76433;42.122;23.040;2024-02-21T12:51:35;97854.59;;;15.00
85893;BMP280;76433;42.122;23.040;2024-02-21T12:54:01;97854.22;;;14.87
85893;BMP280;76433;42.122;23.040;2024-02-21T12:56:28;97856.47;;;14.68
85893;BMP280;76433;42.122;23.040;2024-02-21T12:58:54;97833.66;;;14.49
85893;BMP280;76433;42.122;23.040;2024-02-21T13:01:20;97832.09;;;14.42
85893;BMP280;76433;42.122;23.040;2024-02-21T13:03:46;97835.75;;;14.39
85893;BMP280;76433;42.122;23.040;2024-02-21T13:06:12;97834.38;;;14.29
85893;BMP280;76433;42.122;23.040;2024-02-21T13:08:37;97835.81;;;14.10
85893;BMP280;76433;42.122;23.040;2024-02-21T13:11:03;97832.78;;;14.02
85893;BMP280;76433;42.122;23.040;2024-02-21T13:13:29;97833.09;;;13.90
85893;BMP280;76433;42.122;23.040;2024-02-21T13:15:54;97820.25;;;13.85
85893;BMP280;76433;42.122;23.040;2024-02-21T13:18:20;97824.47;;;13.71
85893;BMP280;76433;42.122;23.040;2024-02-21T13:20:45;97824.38;;;13.65
85893;BMP280;76433;42.122;23.040;2024-02-21T13:23:10;97827.25;;;13.62
85893;BMP280;76433;42.122;23.040;2024-02-21T13:25:36;97829.38;;;13.43
85893;BMP280;76433;42.122;23.040;2024-02-21T13:28:01;97835.59;;;13.35
85893;BMP280;76433;42.122;23.040;2024-02-21T13:30:28;97822.69;;;13.24
85893;BMP280;76433;42.122;23.040;2024-02-21T13:32:54;97835.66;;;13.11
85893;BMP280;76433;42.122;23.040;2024-02-21T13:35:20;97826.34;;;12.97
85893;BMP280;76433;42.122;23.040;2024-02-21T13:37:46;97815.28;;;12.95
85893;BMP280;76433;42.122;23.040;2024-02-21T13:40:11;97830.69;;;12.95
85893;BMP280;76433;42.122;23.040;2024-02-21T13:42:39;97822.41;;;12.83
85893;BMP280;76433;42.122;23.040;2024-02-21T13:45:05;97832.53;;;12.88
85893;BMP280;76433;42.122;23.040;2024-02-21T13:47:31;97824.47;;;12.88
85893;BMP280;76433;42.122;23.040;2024-02-21T13:49:57;97825.22;;;12.89
85893;BMP280;76433;42.122;23.040;2024-02-21T13:52:23;97821.91;;;12.94
85893;BMP280;76433;42.122;23.040;2024-02-21T13:54:51;97823.38;;;12.95
85893;BMP280;76433;42.122;23.040;2024-02-21T13:57:17;97816.69;;;12.91
85893;BMP280;76433;42.122;23.040;2024-02-21T13:59:42;97820.31;;;12.87
85893;BMP280;76433;42.122;23.040;2024-02-21T14:02:08;97810.53;;;12.75